createdAt,value
2019-06-27T00:00:42.161Z,9.73
2019-06-27T00:03:12.915Z,9.70
2019-06-27T00:05:43.523Z,11.68
2019-06-27T00:08:14.106Z,10.23
2019-06-27T00:10:44.950Z,19.00
2019-06-27T00:13:15.440Z,12.20
2019-06-27T00:15:45.941Z,9.05
2019-06-27T00:18:16.531Z,11.63
2019-06-27T00:20:47.183Z,12.93
2019-06-27T00:23:17.735Z,12.47
2019-06-27T00:25:48.418Z,10.25
2019-06-27T00:28:18.840Z,7.30
2019-06-27T00:30:49.325Z,13.00
2019-06-27T00:33:19.940Z,19.77
2019-06-27T00:35:50.571Z,13.58
2019-06-27T00:38:21.131Z,11.33
2019-06-27T00:40:51.723Z,9.83
2019-06-27T00:43:22.235Z,13.50
2019-06-27T00:45:53.735Z,10.65
2019-06-27T00:48:24.528Z,8.48
2019-06-27T00:50:55.074Z,12.85
2019-06-27T00:53:26.552Z,9.20
2019-06-27T00:55:57.163Z,6.92
2019-06-27T00:58:27.730Z,8.98
2019-06-27T01:00:59.274Z,9.70
2019-06-27T01:03:29.807Z,10.38
2019-06-27T01:06:00.410Z,7.72
2019-06-27T01:08:31.157Z,8.00
2019-06-27T01:11:01.793Z,10.80
2019-06-27T01:13:32.578Z,13.43
2019-06-27T01:16:03.215Z,10.23
2019-06-27T01:18:34.453Z,13.50
2019-06-27T01:21:05.225Z,5.55
2019-06-27T01:23:47.646Z,7.55
2019-06-27T01:26:18.196Z,13.45
2019-06-27T01:28:48.706Z,11.97
2019-06-27T01:31:19.321Z,11.60
2019-06-27T01:33:50.040Z,8.15
2019-06-27T01:36:20.622Z,9.80
2019-06-27T01:38:51.097Z,12.80
2019-06-27T01:41:21.768Z,10.28
2019-06-27T01:43:52.650Z,9.83
2019-06-27T01:46:24.123Z,8.65
2019-06-27T01:48:54.672Z,9.80
2019-06-27T01:51:25.724Z,10.78
2019-06-27T01:53:56.214Z,7.08
2019-06-27T01:56:28.693Z,7.65
2019-06-27T01:58:59.251Z,6.40
2019-06-27T02:01:29.880Z,9.18
2019-06-27T02:04:01.360Z,10.13
2019-06-27T02:06:31.968Z,9.08
2019-06-27T02:09:02.677Z,10.30
2019-06-27T02:11:33.418Z,11.53
2019-06-27T02:14:04.033Z,13.15
2019-06-27T02:16:34.605Z,9.63
2019-06-27T02:19:05.333Z,7.97
2019-06-27T02:21:36.036Z,10.63
2019-06-27T02:24:07.560Z,11.90
2019-06-27T02:26:38.203Z,7.37
2019-06-27T02:29:08.753Z,8.15
2019-06-27T02:31:40.412Z,8.00
2019-06-27T02:34:10.881Z,6.75
2019-06-27T02:36:41.459Z,13.53
2019-06-27T02:39:11.896Z,10.63
2019-06-27T02:41:42.439Z,11.97
2019-06-27T02:44:13.482Z,9.80
2019-06-27T02:46:56.017Z,11.90
2019-06-27T02:49:26.724Z,13.28
2019-06-27T02:51:58.929Z,14.20
2019-06-27T02:54:29.424Z,12.63
2019-06-27T02:56:59.961Z,10.13
2019-06-27T02:59:30.669Z,9.45
2019-06-27T03:02:01.238Z,11.48
2019-06-27T03:04:33.174Z,10.32
2019-06-27T03:07:03.758Z,10.45
2019-06-27T03:09:34.515Z,11.03
2019-06-27T03:12:05.157Z,13.13
2019-06-27T03:14:35.747Z,9.50
2019-06-27T03:17:06.468Z,8.53
2019-06-27T03:19:36.914Z,14.40
2019-06-27T03:22:07.655Z,8.73
2019-06-27T03:24:38.117Z,6.50
2019-06-27T03:27:08.846Z,7.70
2019-06-27T03:29:39.316Z,12.73
2019-06-27T03:32:10.254Z,9.23
2019-06-27T03:34:40.838Z,11.45
2019-06-27T03:37:11.429Z,11.48
2019-06-27T03:39:42.038Z,8.88
2019-06-27T03:42:12.706Z,12.50
2019-06-27T03:44:44.400Z,6.90
2019-06-27T03:47:14.853Z,9.35
2019-06-27T03:49:45.899Z,6.42
2019-06-27T03:52:16.985Z,7.25
2019-06-27T03:54:47.476Z,7.42
2019-06-27T03:57:18.396Z,8.25
2019-06-27T03:59:49.042Z,12.18
2019-06-27T04:02:19.598Z,12.82
2019-06-27T04:04:50.451Z,11.30
2019-06-27T04:07:21.100Z,9.63
2019-06-27T04:09:51.639Z,8.33
2019-06-27T04:12:22.606Z,12.63
2019-06-27T04:14:53.258Z,15.38
2019-06-27T04:17:23.728Z,9.05
2019-06-27T04:19:54.287Z,8.70
2019-06-27T04:22:25.773Z,6.03
2019-06-27T04:24:56.453Z,9.43
2019-06-27T04:27:27.007Z,6.60
2019-06-27T04:29:57.568Z,6.12
2019-06-27T04:32:28.098Z,7.35
2019-06-27T04:34:58.580Z,8.23
2019-06-27T04:37:29.298Z,10.05
2019-06-27T04:39:59.886Z,9.48
2019-06-27T04:42:30.583Z,9.35
2019-06-27T04:45:01.898Z,9.43
2019-06-27T04:47:32.502Z,5.80
2019-06-27T04:50:04.004Z,10.63
2019-06-27T04:52:35.109Z,6.42
2019-06-27T04:55:06.404Z,8.18
2019-06-27T04:57:37.041Z,7.80
2019-06-27T05:00:08.731Z,7.37
2019-06-27T05:02:39.302Z,9.55
2019-06-27T05:05:09.995Z,6.22
2019-06-27T05:07:40.536Z,9.60
2019-06-27T05:10:11.201Z,8.85
2019-06-27T05:12:41.617Z,8.73
2019-06-27T05:15:12.949Z,6.78
2019-06-27T05:17:43.656Z,6.10
2019-06-27T05:20:14.242Z,7.80
2019-06-27T05:22:44.805Z,6.00
2019-06-27T05:25:15.379Z,7.70
2019-06-27T05:27:46.766Z,9.28
2019-06-27T05:30:18.333Z,8.78
2019-06-27T05:32:48.998Z,7.40
2019-06-27T05:35:19.520Z,6.70
2019-06-27T05:37:50.102Z,6.90
2019-06-27T05:40:20.736Z,4.03
2019-06-27T05:42:51.423Z,10.30
2019-06-27T05:45:22.799Z,6.00
2019-06-27T05:47:53.342Z,7.10
2019-06-27T05:50:23.986Z,9.08
2019-06-27T05:52:54.614Z,8.70
2019-06-27T05:55:25.698Z,4.15
2019-06-27T05:57:56.520Z,8.25
2019-06-27T06:00:29.535Z,9.23
2019-06-27T06:03:00.801Z,6.90
2019-06-27T06:05:31.373Z,6.33
2019-06-27T06:08:01.918Z,7.33
2019-06-27T06:11:05.476Z,7.50
2019-06-27T06:13:39.679Z,9.60
2019-06-27T06:16:11.369Z,5.50
2019-06-27T06:18:42.056Z,7.87
2019-06-27T06:21:12.683Z,9.20
2019-06-27T06:23:44.248Z,5.55
2019-06-27T06:26:14.724Z,5.90
2019-06-27T06:28:45.268Z,9.75
2019-06-27T06:31:15.804Z,6.15
2019-06-27T06:33:46.314Z,5.90
2019-06-27T06:36:17.094Z,8.45
2019-06-27T06:38:47.656Z,6.25
2019-06-27T06:41:18.388Z,6.78
2019-06-27T06:43:48.951Z,6.53
2019-06-27T06:46:19.550Z,7.87
2019-06-27T06:48:50.014Z,6.20
2019-06-27T06:51:20.384Z,6.60
2019-06-27T06:53:52.705Z,6.03
2019-06-27T06:56:23.673Z,7.10
2019-06-27T06:58:55.566Z,6.87
2019-06-27T07:01:25.950Z,6.45
2019-06-27T07:03:59.403Z,5.95
2019-06-27T07:06:30.116Z,4.33
2019-06-27T07:09:05.330Z,8.10
2019-06-27T07:11:37.727Z,7.17
2019-06-27T07:14:08.252Z,9.30
2019-06-27T07:16:38.916Z,7.90
2019-06-27T07:19:09.467Z,3.95
2019-06-27T07:21:40.099Z,4.80
2019-06-27T07:24:10.766Z,6.67
2019-06-27T07:26:41.358Z,10.65
2019-06-27T07:29:11.858Z,8.40
2019-06-27T07:31:42.532Z,8.85
2019-06-27T07:34:13.051Z,8.75
2019-06-27T07:36:43.856Z,8.93
2019-06-27T07:39:14.313Z,8.75
2019-06-27T07:41:44.801Z,4.95
2019-06-27T07:44:15.490Z,8.10
2019-06-27T07:46:46.147Z,8.00
2019-06-27T07:49:16.808Z,5.37
2019-06-27T07:51:47.239Z,7.97
2019-06-27T07:54:17.849Z,8.38
2019-06-27T07:56:50.874Z,8.20
2019-06-27T07:59:21.473Z,9.15
2019-06-27T08:01:52.056Z,5.72
2019-06-27T08:04:22.837Z,7.53
2019-06-27T08:06:53.424Z,7.72
2019-06-27T08:09:24.206Z,6.92
2019-06-27T08:11:54.820Z,8.95
2019-06-27T08:14:25.547Z,7.12
2019-06-27T08:16:56.129Z,6.62
2019-06-27T08:19:26.763Z,4.85
2019-06-27T08:21:57.954Z,8.80
2019-06-27T08:24:28.457Z,8.30
2019-06-27T08:26:59.110Z,5.87
2019-06-27T08:29:29.584Z,4.37
2019-06-27T08:32:00.210Z,6.12
2019-06-27T08:34:30.776Z,7.78
2019-06-27T08:37:01.274Z,9.80
2019-06-27T08:39:31.901Z,7.62
2019-06-27T08:42:02.335Z,7.30
2019-06-27T08:44:33.314Z,7.12
2019-06-27T08:47:18.018Z,5.80
2019-06-27T08:49:48.613Z,4.78
2019-06-27T08:52:19.217Z,6.33
2019-06-27T08:54:50.217Z,5.58
2019-06-27T08:57:21.444Z,4.87
2019-06-27T08:59:54.043Z,7.70
2019-06-27T09:02:24.692Z,5.28
2019-06-27T09:04:55.416Z,4.37
2019-06-27T09:07:25.966Z,5.95
2019-06-27T09:09:56.615Z,5.87
2019-06-27T09:12:27.223Z,9.65
2019-06-27T09:14:58.135Z,4.28
2019-06-27T09:17:28.724Z,4.05
2019-06-27T09:19:59.227Z,7.25
2019-06-27T09:22:29.815Z,7.72
2019-06-27T09:25:00.279Z,4.22
2019-06-27T09:27:30.837Z,5.22
2019-06-27T09:30:01.573Z,5.22
2019-06-27T09:32:32.580Z,4.05
2019-06-27T09:35:03.050Z,2.42
2019-06-27T09:37:33.693Z,2.87
2019-06-27T09:40:04.776Z,5.62
2019-06-27T09:42:35.413Z,3.77
2019-06-27T10:44:19.368Z,2.87
2019-06-27T10:46:49.778Z,3.77
2019-06-27T10:49:20.324Z,2.92
2019-06-27T10:51:50.906Z,2.20
2019-06-27T10:54:21.408Z,2.17
2019-06-27T10:56:52.744Z,1.80
2019-06-27T10:59:23.479Z,1.72
2019-06-27T11:01:54.035Z,2.42
2019-06-27T11:04:24.533Z,2.60
2019-06-27T11:06:55.947Z,6.25
2019-06-27T11:09:26.851Z,3.50
2019-06-27T11:11:57.460Z,5.95
2019-06-27T11:14:29.037Z,4.37
2019-06-27T11:16:59.530Z,4.37
2019-06-27T11:19:30.114Z,3.62
2019-06-27T11:22:01.232Z,5.35
2019-06-27T11:24:31.825Z,3.60
2019-06-27T11:27:03.400Z,3.85
2019-06-27T11:29:33.941Z,3.33
2019-06-27T11:32:05.679Z,4.55
2019-06-27T11:34:36.825Z,5.28
2019-06-27T11:37:07.514Z,2.83
2019-06-27T11:39:38.842Z,3.52
2019-06-27T11:42:09.461Z,3.55
2019-06-27T11:44:40.605Z,2.60
2019-06-27T11:47:15.049Z,6.17
2019-06-27T11:49:49.729Z,3.10
2019-06-27T11:52:26.427Z,4.80
2019-06-27T11:54:56.410Z,4.87
2019-06-27T11:57:26.882Z,4.80
2019-06-27T11:59:58.060Z,4.78
2019-06-27T12:02:29.004Z,3.90
2019-06-27T12:04:59.583Z,5.40
2019-06-27T12:07:31.113Z,5.33
2019-06-27T12:10:02.046Z,5.75
2019-06-27T12:12:32.615Z,8.18
2019-06-27T12:15:03.328Z,4.12
2019-06-27T12:17:34.804Z,6.85
2019-06-27T12:20:06.383Z,6.60
2019-06-27T12:22:36.788Z,5.15
2019-06-27T12:25:08.630Z,3.85
2019-06-27T12:27:39.261Z,3.87
2019-06-27T12:30:10.132Z,6.35
2019-06-27T12:32:51.843Z,4.85
2019-06-27T12:35:14.597Z,4.00
2019-06-27T12:37:45.370Z,10.58
2019-06-27T12:40:16.970Z,5.50
2019-06-27T12:42:48.449Z,7.58
2019-06-27T12:45:19.366Z,5.00
2019-06-27T12:47:50.084Z,7.28
2019-06-27T12:50:20.865Z,8.23
2019-06-27T12:52:51.613Z,6.65
2019-06-27T12:55:22.764Z,5.22
2019-06-27T12:57:54.453Z,4.55
2019-06-27T13:00:28.401Z,7.47
2019-06-27T13:02:59.264Z,6.78
2019-06-27T13:05:30.252Z,5.12
2019-06-27T13:08:01.019Z,6.03
2019-06-27T13:10:35.964Z,7.17
2019-06-27T13:13:06.993Z,6.25
2019-06-27T13:15:37.550Z,8.20
2019-06-27T13:18:08.118Z,6.62
2019-06-27T13:20:53.109Z,8.15
2019-06-27T13:23:11.519Z,6.78
2019-06-27T13:25:41.940Z,9.98
2019-06-27T13:28:12.738Z,8.25
2019-06-27T13:30:43.872Z,8.80
2019-06-27T13:33:15.398Z,5.95
2019-06-27T13:35:49.018Z,7.80
2019-06-27T13:38:18.293Z,6.80
2019-06-27T13:40:48.870Z,7.83
2019-06-27T13:43:19.788Z,4.65
2019-06-27T13:45:50.436Z,11.68
2019-06-27T13:48:21.080Z,5.65
2019-06-27T13:50:59.436Z,7.22
2019-06-27T13:53:41.544Z,6.55
2019-06-27T13:56:29.678Z,5.30
2019-06-27T13:59:15.003Z,5.80
2019-06-27T14:02:28.239Z,5.25
2019-06-27T14:05:28.552Z,7.37
2019-06-27T14:08:01.227Z,11.15
2019-06-27T14:10:31.951Z,15.08
2019-06-27T14:13:02.791Z,11.65
2019-06-27T14:15:34.879Z,5.00
2019-06-27T14:18:05.529Z,10.38
2019-06-27T14:20:36.088Z,7.87
2019-06-27T14:23:06.720Z,9.23
2019-06-27T14:25:37.398Z,7.83
2019-06-27T14:28:08.032Z,5.92
2019-06-27T14:30:38.709Z,6.35
2019-06-27T14:33:09.601Z,5.72
2019-06-27T14:35:40.298Z,3.95
2019-06-27T14:38:10.856Z,5.05
2019-06-27T14:40:43.768Z,4.78
2019-06-27T14:43:14.231Z,5.55
2019-06-27T14:45:44.837Z,7.03
2019-06-27T14:48:16.512Z,8.60
2019-06-27T14:50:47.084Z,5.65
2019-06-27T14:53:17.706Z,6.28
2019-06-27T14:55:48.290Z,8.73
2019-06-27T14:58:18.929Z,6.28
2019-06-27T15:00:49.459Z,7.72
2019-06-27T15:03:20.027Z,8.95
2019-06-27T15:05:50.837Z,8.43
2019-06-27T15:08:22.011Z,8.28
2019-06-27T15:10:52.646Z,7.78
2019-06-27T15:13:23.252Z,7.03
2019-06-27T15:16:07.408Z,7.78
2019-06-27T15:18:26.010Z,10.03
2019-06-27T15:20:56.759Z,5.60
2019-06-27T15:23:29.220Z,10.10
2019-06-27T15:26:00.041Z,11.08
2019-06-27T15:28:34.090Z,6.05
2019-06-27T15:31:04.736Z,7.90
2019-06-27T15:33:38.517Z,9.60
2019-06-27T15:36:09.198Z,8.95
2019-06-27T15:38:39.914Z,6.80
2019-06-27T15:41:12.268Z,5.95
2019-06-27T15:43:42.901Z,8.65
2019-06-27T15:46:13.638Z,6.12
2019-06-27T15:48:44.295Z,9.38
2019-06-27T15:51:14.912Z,7.00
2019-06-27T15:53:45.978Z,8.38
2019-06-27T15:56:16.678Z,10.53
2019-06-27T15:58:48.187Z,7.62
2019-06-27T16:01:18.869Z,7.22
2019-06-27T16:03:49.647Z,7.75
2019-06-27T16:06:20.545Z,9.73
2019-06-27T16:08:52.550Z,8.15
2019-06-27T16:11:23.348Z,7.17
2019-06-27T16:13:53.997Z,7.03
2019-06-27T16:16:24.997Z,9.33
2019-06-27T16:18:55.696Z,6.10
2019-06-27T16:21:26.309Z,8.15
2019-06-27T16:23:56.895Z,9.70
2019-06-27T16:26:27.341Z,9.45
2019-06-27T16:28:58.053Z,7.70
2019-06-27T16:31:28.743Z,11.83
2019-06-27T16:33:59.470Z,9.68
2019-06-27T16:36:30.102Z,8.43
2019-06-27T16:39:00.733Z,7.62
2019-06-27T16:41:32.601Z,11.33
2019-06-27T16:44:03.508Z,11.48
2019-06-27T16:46:34.263Z,14.33
2019-06-27T16:49:05.281Z,8.68
2019-06-27T16:51:35.967Z,7.53
2019-06-27T16:54:06.961Z,7.17
2019-06-27T16:56:37.672Z,6.65
2019-06-27T16:59:08.307Z,9.75
2019-06-27T17:01:38.895Z,6.78
2019-06-27T17:04:09.511Z,7.15
2019-06-27T17:06:42.696Z,8.90
2019-06-27T17:09:13.491Z,6.37
2019-06-27T17:11:44.063Z,10.40
2019-06-27T17:14:15.727Z,8.48
2019-06-27T17:16:46.708Z,8.18
2019-06-27T17:19:18.784Z,9.15
2019-06-27T17:21:49.315Z,7.75
2019-06-27T17:24:19.855Z,11.85
2019-06-27T17:26:50.695Z,7.78
2019-06-27T17:29:21.392Z,7.12
2019-06-27T17:31:52.437Z,6.65
2019-06-27T17:34:24.712Z,9.40
2019-06-27T17:36:57.793Z,7.20
2019-06-27T17:39:27.549Z,7.28
2019-06-27T17:41:58.263Z,6.22
2019-06-27T17:44:29.863Z,6.85
2019-06-27T17:47:02.273Z,8.38
2019-06-27T17:49:33.094Z,4.35
2019-06-27T17:52:03.901Z,5.62
2019-06-27T17:54:34.526Z,8.90
2019-06-27T17:57:05.131Z,5.28
2019-06-27T17:59:35.717Z,6.83
2019-06-27T18:02:06.337Z,11.97
2019-06-27T18:04:36.821Z,6.58
2019-06-27T18:07:14.069Z,8.53
2019-06-27T18:09:41.532Z,6.95
2019-06-27T18:12:12.256Z,8.43
2019-06-27T18:14:43.116Z,7.67
2019-06-27T18:17:13.551Z,9.38
2019-06-27T18:19:44.122Z,7.20
2019-06-27T18:22:14.707Z,7.92
2019-06-27T18:24:45.511Z,8.45
2019-06-27T18:27:16.389Z,9.50
2019-06-27T18:29:48.037Z,9.38
2019-06-27T18:32:19.825Z,5.92
2019-06-27T18:34:50.478Z,6.20
2019-06-27T18:37:29.657Z,13.35
2019-06-27T18:39:54.369Z,8.60
2019-06-27T18:42:25.061Z,9.88
2019-06-27T18:44:55.681Z,7.45
2019-06-27T18:47:27.168Z,8.95
2019-06-27T18:49:57.744Z,10.58
2019-06-27T18:52:29.090Z,7.60
2019-06-27T18:55:00.331Z,9.45
2019-06-27T18:57:31.068Z,8.30
2019-06-27T19:00:02.250Z,6.80
2019-06-27T19:02:34.014Z,6.22
2019-06-27T19:05:05.590Z,6.12
2019-06-27T19:07:45.318Z,9.70
2019-06-27T19:10:10.974Z,7.83
2019-06-27T19:12:42.524Z,7.25
2019-06-27T19:15:13.333Z,10.08
2019-06-27T19:17:43.876Z,8.68
2019-06-27T19:20:24.155Z,8.10
2019-06-27T19:23:05.196Z,7.12
2019-06-27T19:25:36.779Z,7.33
2019-06-27T19:28:07.397Z,6.05
2019-06-27T19:30:37.989Z,8.95
2019-06-27T19:33:08.489Z,10.05
2019-06-27T19:35:39.031Z,7.65
2019-06-27T19:38:09.585Z,6.70
2019-06-27T19:40:40.548Z,10.93
2019-06-27T19:43:26.590Z,8.45
2019-06-27T19:45:44.268Z,7.80
2019-06-27T19:48:14.691Z,7.67
2019-06-27T19:50:45.255Z,7.40
2019-06-27T19:53:15.849Z,8.23
2019-06-27T19:55:46.744Z,8.00
2019-06-27T19:58:17.362Z,9.75
2019-06-27T20:00:49.609Z,8.90
2019-06-27T20:03:20.253Z,7.17
2019-06-27T20:05:50.946Z,8.75
2019-06-27T20:08:21.514Z,10.30
2019-06-27T20:10:52.760Z,9.83
2019-06-27T20:13:24.941Z,7.70
2019-06-27T20:15:55.548Z,6.55
2019-06-27T20:18:26.245Z,12.18
2019-06-27T20:20:56.701Z,13.38
2019-06-27T20:23:27.315Z,6.53
2019-06-27T20:25:58.008Z,8.75
2019-06-27T20:28:28.572Z,11.50
2019-06-27T20:31:00.187Z,8.23
2019-06-27T20:33:30.920Z,9.23
2019-06-27T20:36:01.536Z,8.33
2019-06-27T20:38:35.124Z,8.33
2019-06-27T20:41:04.740Z,6.83
2019-06-27T20:43:37.077Z,10.50
2019-06-27T20:46:07.727Z,6.25
2019-06-27T20:48:38.324Z,8.23
2019-06-27T20:51:08.874Z,8.70
2019-06-27T20:53:40.108Z,9.95
2019-06-27T20:56:10.576Z,7.62
2019-06-27T20:58:41.222Z,10.72
2019-06-27T21:01:11.897Z,10.90
2019-06-27T21:03:42.531Z,11.48
2019-06-27T21:06:13.191Z,12.25
2019-06-27T21:08:51.091Z,10.65
2019-06-27T21:11:17.108Z,9.33
2019-06-27T21:13:47.997Z,10.25
2019-06-27T21:16:18.593Z,9.95
2019-06-27T21:18:49.310Z,14.43
2019-06-27T21:21:20.109Z,12.23
2019-06-27T21:23:52.240Z,11.73
2019-06-27T21:26:22.745Z,11.22
2019-06-27T21:28:53.202Z,11.05
2019-06-27T21:31:24.067Z,10.08
2019-06-27T21:33:54.674Z,13.85
2019-06-27T21:36:25.387Z,10.03
2019-06-27T21:39:07.148Z,9.43
2019-06-27T21:41:28.753Z,16.00
2019-06-27T21:44:04.035Z,14.55
2019-06-27T21:46:59.237Z,13.25
2019-06-27T21:49:30.166Z,11.88
2019-06-27T21:52:00.773Z,7.90
2019-06-27T21:54:31.374Z,13.83
2019-06-27T21:57:02.009Z,12.95
2019-06-27T21:59:32.838Z,11.00
2019-06-27T22:02:03.525Z,11.28
2019-06-27T22:04:34.218Z,13.05
2019-06-27T22:07:04.915Z,14.93
2019-06-27T22:09:35.656Z,14.63
2019-06-27T22:12:06.720Z,16.23
2019-06-27T22:14:37.931Z,12.13
2019-06-27T22:17:08.630Z,13.20
2019-06-27T22:19:39.347Z,14.00
2019-06-27T22:22:12.798Z,10.20
2019-06-27T22:24:43.541Z,14.00
2019-06-27T22:27:14.199Z,13.68
2019-06-27T22:29:44.727Z,11.03
2019-06-27T22:32:15.410Z,12.03
2019-06-27T22:34:46.310Z,13.72
2019-06-27T22:37:23.900Z,12.60
2019-06-27T22:40:13.218Z,14.73
2019-06-27T22:43:04.208Z,8.95
2019-06-27T22:45:52.428Z,9.93
2019-06-27T22:48:22.448Z,12.68
2019-06-27T22:51:12.857Z,11.38
2019-06-27T22:53:52.592Z,11.93
2019-06-27T22:56:23.355Z,14.68
2019-06-27T22:58:53.953Z,8.38
2019-06-27T23:01:24.858Z,12.37
2019-06-27T23:03:55.482Z,13.80
2019-06-27T23:06:26.204Z,11.68
2019-06-27T23:08:57.020Z,16.93
2019-06-27T23:11:27.593Z,14.40
2019-06-27T23:13:58.195Z,16.85
2019-06-27T23:16:30.276Z,16.87
2019-06-27T23:19:01.635Z,17.73
2019-06-27T23:21:32.268Z,13.75
2019-06-27T23:24:03.749Z,16.93
2019-06-27T23:26:34.414Z,15.45
2019-06-27T23:29:05.028Z,13.50
2019-06-27T23:31:36.277Z,11.65
2019-06-27T23:34:06.945Z,12.88
2019-06-27T23:36:37.501Z,16.97
2019-06-27T23:39:08.133Z,16.55
2019-06-27T23:41:38.704Z,14.35
2019-06-27T23:44:09.393Z,15.20
2019-06-27T23:46:41.463Z,15.00
2019-06-27T23:49:12.517Z,12.30
2019-06-27T23:51:43.115Z,15.45
2019-06-27T23:54:13.722Z,11.03
2019-06-27T23:56:44.224Z,11.08
2019-06-27T23:59:14.840Z,12.00
